Archival Weather

Chicago O'Hare International

Chicago, Illinois (KORD)

Report from: Saturday, March 5, 2022 8:51 PM CST
Current time: Saturday, February 4, 2023 10:16 PM CST

Current weather
Weather history
Weather forecast

Temperature16.7°C (62.1°F)
Dew point12.2°C (54.0°F)
Winds 20 kts (10.3 m/s, 23 mph) South (190°)
Wind gusts 35 kts (18 m/s, 40.3 mph)
Peak wind 44 kts (22.6 m/s, 50.6 mph) South (190°) at 19:57
Visibility10 mi. (16.1 km)
Clouds Scattered clouds 5,000 ft. (1,524 m)
Ceiling: Broken clouds 5,500 ft. (1,676 m)
Broken clouds 9,000 ft. (2,743 m)
Altimeter29.63 in.Hg (1003 mB)
Precipitiation0.01 in. (0 mm)
Precip. events Rain began 8:01 PM
Rain ended 8:28 PM
Thunderstorm began 7:53 PM
Thunderstorm ended 8:34 PM
Precip last 3 hours0.01 in. (0 mm)
Relative humidity75 %
Density altitude734 ft. (224 m)
Sea-level pressure100.4 kPa (1004 mB, 29.63 in.Hg)
Remarks System requires maintenance
Automated weather observing station with precipitation discriminator
Lightning observed
Distant east
Pressure falling more quickly
Flight conditions Visual Meteorological Conditions
Raw dataKORD 060251Z 19020G35KT 10SM SCT050 BKN055 BKN090 17/12 A2963 RMK AO2 PK WND 19044/0157 LTG DSNT E RAB01E28 TSB0153E34 SLP035 P0001 60001 T01670122 58021 $
An unhandled exception has occurred. See browser dev tools for details. Reload 🗙